createdAt,value
2022-11-12T00:01:12.651Z,6.20
2022-11-12T00:03:41.861Z,6.10
2022-11-12T00:06:11.125Z,6.10
2022-11-12T00:08:38.144Z,6.10
2022-11-12T00:11:05.097Z,6.10
2022-11-12T00:13:31.936Z,6.10
2022-11-12T00:15:58.634Z,6.10
2022-11-12T00:18:25.504Z,6.10
2022-11-12T00:20:52.405Z,6.10
2022-11-12T00:23:19.101Z,6.10
2022-11-12T00:25:45.759Z,6.00
2022-11-12T00:28:12.379Z,6.00
2022-11-12T00:30:40.550Z,6.00
2022-11-12T00:33:07.230Z,5.90
2022-11-12T00:35:34.265Z,6.00
2022-11-12T00:38:01.301Z,5.90
2022-11-12T00:40:28.595Z,5.90
2022-11-12T00:42:55.407Z,5.90
2022-11-12T00:45:25.017Z,5.90
2022-11-12T00:47:56.054Z,5.80
2022-11-12T00:50:23.438Z,5.80
2022-11-12T00:52:52.852Z,5.80
2022-11-12T00:55:19.450Z,5.70
2022-11-12T00:57:46.082Z,5.70
2022-11-12T01:00:18.559Z,5.70
2022-11-12T01:02:50.789Z,5.70
2022-11-12T01:05:18.817Z,5.70
2022-11-12T01:07:45.667Z,5.70
2022-11-12T01:10:14.614Z,5.70
2022-11-12T01:12:41.236Z,5.70
2022-11-12T01:15:08.641Z,5.70
2022-11-12T01:17:35.435Z,5.70
2022-11-12T01:20:02.063Z,5.60
2022-11-12T01:22:31.213Z,5.60
2022-11-12T01:25:00.084Z,5.60
2022-11-12T01:27:26.762Z,5.60
2022-11-12T01:29:53.406Z,5.60
2022-11-12T01:32:20.194Z,5.60
2022-11-12T01:34:46.809Z,5.60
2022-11-12T01:37:13.545Z,5.60
2022-11-12T01:39:40.138Z,5.60
2022-11-12T01:42:06.825Z,5.60
2022-11-12T01:44:41.537Z,5.60
2022-11-12T01:47:17.541Z,5.60
2022-11-12T01:49:57.274Z,5.70
2022-11-12T01:52:39.068Z,5.70
2022-11-12T01:55:18.380Z,5.70
2022-11-12T01:57:50.720Z,5.70
2022-11-12T02:00:17.771Z,5.70
2022-11-12T02:02:47.262Z,5.70
2022-11-12T02:05:18.775Z,5.70
2022-11-12T02:07:47.637Z,5.80
2022-11-12T02:10:14.771Z,5.90
2022-11-12T02:13:00.904Z,5.90
2022-11-12T02:15:28.030Z,5.90
2022-11-12T02:17:54.713Z,6.00
2022-11-12T02:20:21.349Z,6.10
2022-11-12T02:22:48.051Z,6.10
2022-11-12T02:25:20.718Z,6.10
2022-11-12T02:27:51.805Z,6.20
2022-11-12T02:30:22.135Z,6.20
2022-11-12T02:32:48.769Z,6.20
2022-11-12T02:35:15.489Z,6.20
2022-11-12T02:37:42.107Z,6.10
2022-11-12T02:40:11.049Z,6.10
2022-11-12T02:42:37.655Z,6.10
2022-11-12T02:45:04.829Z,6.10
2022-11-12T02:47:33.611Z,6.10
2022-11-12T02:50:00.238Z,6.10
2022-11-12T02:52:29.020Z,6.10
2022-11-12T02:54:55.754Z,6.10
2022-11-12T02:57:22.359Z,6.00
2022-11-12T02:59:49.026Z,6.00
2022-11-12T03:02:15.766Z,6.00
2022-11-12T03:04:48.206Z,6.00
2022-11-12T03:07:18.381Z,6.00
2022-11-12T03:09:47.168Z,6.10
2022-11-12T03:12:13.755Z,6.10
2022-11-12T03:14:40.747Z,6.20
2022-11-12T03:17:07.376Z,6.20
2022-11-12T03:19:34.014Z,6.20
2022-11-12T03:22:03.176Z,6.30
2022-11-12T03:24:32.280Z,6.30
2022-11-12T03:27:01.144Z,6.30
2022-11-12T03:29:27.739Z,6.30
2022-11-12T03:31:54.382Z,6.30
2022-11-12T03:34:21.002Z,6.30
2022-11-12T03:36:49.868Z,6.30
2022-11-12T03:39:19.316Z,6.40
2022-11-12T03:41:48.436Z,6.30
2022-11-12T03:44:15.026Z,6.30
2022-11-12T03:46:44.402Z,6.40
2022-11-12T03:49:13.552Z,6.30
2022-11-12T03:51:40.167Z,6.30
2022-11-12T03:54:06.992Z,6.40
2022-11-12T03:56:33.617Z,6.40
2022-11-12T03:59:00.241Z,6.40
2022-11-12T04:01:26.912Z,6.40
2022-11-12T04:03:53.650Z,6.50
2022-11-12T04:06:38.801Z,6.50
2022-11-12T04:09:05.441Z,6.50
2022-11-12T04:11:32.081Z,6.50
2022-11-12T04:13:58.850Z,6.50
2022-11-12T04:16:44.237Z,6.50
2022-11-12T04:19:31.278Z,6.60
2022-11-12T04:22:07.866Z,6.60
2022-11-12T04:24:55.669Z,6.70
2022-11-12T04:27:42.450Z,6.70
2022-11-12T04:30:19.376Z,6.60
2022-11-12T04:32:54.718Z,6.70
2022-11-12T04:35:28.024Z,6.70
2022-11-12T04:37:55.191Z,6.70
2022-11-12T04:40:44.269Z,6.80
2022-11-12T04:43:32.212Z,6.80
2022-11-12T04:46:00.209Z,6.80
2022-11-12T04:48:29.541Z,6.80
2022-11-12T04:51:24.487Z,6.80
2022-11-12T04:53:51.117Z,6.90
2022-11-12T04:56:17.733Z,6.90
2022-11-12T04:58:44.918Z,6.90
2022-11-12T05:01:11.719Z,6.90
2022-11-12T05:03:38.365Z,6.90
2022-11-12T05:06:29.317Z,6.90
2022-11-12T05:08:58.371Z,6.90
2022-11-12T05:11:24.962Z,7.00
2022-11-12T05:13:51.568Z,7.00
2022-11-12T05:16:18.161Z,7.00
2022-11-12T05:18:44.760Z,7.00
2022-11-12T05:21:30.184Z,7.00
2022-11-12T05:23:56.789Z,7.00
2022-11-12T05:26:23.430Z,7.00
2022-11-12T05:28:50.062Z,7.10
2022-11-12T05:31:16.702Z,7.00
2022-11-12T05:33:43.321Z,7.10
2022-11-12T05:36:12.175Z,7.10
2022-11-12T05:38:41.285Z,7.00
2022-11-12T05:41:07.869Z,7.00
2022-11-12T05:43:39.704Z,7.00
2022-11-12T05:46:06.403Z,7.10
2022-11-12T05:48:33.068Z,7.10
2022-11-12T05:51:12.580Z,7.10
2022-11-12T05:53:41.051Z,7.10
2022-11-12T05:56:13.284Z,7.10
2022-11-12T05:58:40.029Z,7.10
2022-11-12T06:01:08.847Z,7.10
2022-11-12T06:03:35.609Z,7.10
2022-11-12T06:06:02.288Z,7.20
2022-11-12T06:08:29.415Z,7.20
2022-11-12T06:10:58.752Z,7.20
2022-11-12T06:13:26.146Z,7.20
2022-11-12T06:15:54.146Z,7.20
2022-11-12T06:18:21.735Z,7.20
2022-11-12T06:21:07.433Z,7.20
2022-11-12T06:23:34.095Z,7.20
2022-11-12T06:26:00.831Z,7.30
2022-11-12T06:28:28.200Z,7.30
2022-11-12T06:30:55.398Z,7.30
2022-11-12T06:33:22.066Z,7.20
2022-11-12T06:35:55.934Z,7.30
2022-11-12T06:38:22.450Z,7.30
2022-11-12T06:40:49.091Z,7.30
2022-11-12T06:43:15.751Z,7.30
2022-11-12T06:45:44.565Z,7.30
2022-11-12T06:48:11.216Z,7.30
2022-11-12T06:50:40.061Z,7.30
2022-11-12T06:53:08.903Z,7.30
2022-11-12T06:55:35.637Z,7.30
2022-11-12T06:58:02.313Z,7.30
2022-11-12T07:00:28.911Z,7.30
2022-11-12T07:02:55.561Z,7.40
2022-11-12T07:05:22.162Z,7.40
2022-11-12T07:07:51.040Z,7.40
2022-11-12T07:10:17.816Z,7.40
2022-11-12T07:12:51.994Z,7.40
2022-11-12T07:15:19.879Z,7.40
2022-11-12T07:17:46.942Z,7.50
2022-11-12T07:20:13.931Z,7.50
2022-11-12T07:22:40.633Z,7.50
2022-11-12T07:25:07.649Z,7.50
2022-11-12T07:27:34.309Z,7.60
2022-11-12T07:30:01.090Z,7.60
2022-11-12T07:32:30.052Z,7.60
2022-11-12T07:34:59.162Z,7.60
2022-11-12T07:37:25.786Z,7.60
2022-11-12T07:39:52.439Z,7.60
2022-11-12T07:42:21.436Z,7.60
2022-11-12T07:44:48.063Z,7.70
2022-11-12T07:47:14.740Z,7.70
2022-11-12T07:49:41.432Z,7.70
2022-11-12T07:52:08.096Z,7.70
2022-11-12T07:54:34.738Z,7.70
2022-11-12T07:57:01.471Z,7.70
2022-11-12T07:59:28.206Z,7.70
2022-11-12T08:01:57.352Z,7.80
2022-11-12T08:04:24.129Z,7.80
2022-11-12T08:06:56.006Z,7.80
2022-11-12T08:09:22.826Z,7.80
2022-11-12T08:11:51.862Z,7.90
2022-11-12T08:14:18.655Z,7.90
2022-11-12T08:16:46.625Z,7.90
2022-11-12T08:19:13.304Z,7.90
2022-11-12T08:21:44.870Z,7.90
2022-11-12T08:24:11.630Z,7.90
2022-11-12T08:26:38.300Z,8.00
2022-11-12T08:29:08.588Z,8.00
2022-11-12T08:31:35.799Z,8.00
2022-11-12T08:34:12.215Z,8.00
2022-11-12T08:36:40.264Z,8.00
2022-11-12T08:39:07.650Z,8.00
2022-11-12T08:41:34.489Z,8.10
2022-11-12T08:44:07.120Z,8.00
2022-11-12T08:46:37.566Z,8.10
2022-11-12T08:49:04.192Z,8.10
2022-11-12T08:51:30.897Z,8.20
2022-11-12T08:53:57.542Z,8.20
2022-11-12T08:56:24.183Z,8.20
2022-11-12T08:58:50.853Z,8.20
2022-11-12T09:01:17.511Z,8.30
2022-11-12T09:03:44.272Z,8.30
2022-11-12T09:06:11.020Z,8.30
2022-11-12T09:08:40.148Z,8.30
2022-11-12T09:11:07.393Z,8.30
2022-11-12T09:13:34.805Z,8.30
2022-11-12T09:16:09.157Z,8.30
2022-11-12T09:18:36.475Z,8.30
2022-11-12T09:21:10.649Z,8.30
2022-11-12T09:23:37.834Z,8.30
2022-11-12T09:26:05.257Z,8.30
2022-11-12T09:28:32.346Z,8.40
2022-11-12T09:30:59.459Z,8.40
2022-11-12T09:33:29.858Z,8.40
2022-11-12T09:36:00.186Z,8.40
2022-11-12T09:38:29.362Z,8.50
2022-11-12T09:41:05.189Z,8.50
2022-11-12T09:43:42.285Z,8.60
2022-11-12T09:46:36.690Z,8.60
2022-11-12T09:49:14.447Z,8.70
2022-11-12T09:51:55.291Z,8.70
2022-11-12T09:54:33.867Z,8.80
2022-11-12T09:57:01.191Z,8.70
2022-11-12T09:59:31.659Z,8.80
2022-11-12T10:02:16.549Z,8.80
2022-11-12T10:04:58.309Z,8.80
2022-11-12T10:07:52.699Z,8.80
2022-11-12T10:10:33.064Z,8.80
2022-11-12T10:13:17.758Z,8.80
2022-11-12T10:16:45.134Z,8.80
2022-11-12T10:19:20.624Z,8.80
2022-11-12T10:22:19.240Z,8.90
2022-11-12T10:24:46.716Z,8.90
2022-11-12T10:27:17.729Z,8.90
2022-11-12T10:30:01.064Z,8.90
2022-11-12T10:32:27.836Z,8.90
2022-11-12T10:34:56.650Z,8.90
2022-11-12T10:38:03.976Z,8.90
2022-11-12T10:40:37.944Z,9.00
2022-11-12T10:43:23.711Z,9.00
2022-11-12T10:45:53.256Z,9.00
2022-11-12T10:48:34.143Z,9.10
2022-11-12T10:51:04.119Z,9.10
2022-11-12T10:53:39.893Z,9.10
2022-11-12T10:56:29.860Z,9.20
2022-11-12T10:59:16.463Z,9.20
2022-11-12T11:01:46.082Z,9.20
2022-11-12T11:04:23.898Z,9.20
2022-11-12T11:06:59.046Z,9.20
2022-11-12T11:09:26.996Z,9.20
2022-11-12T11:11:56.516Z,9.20
2022-11-12T11:14:23.239Z,9.20
2022-11-12T11:16:56.596Z,9.20
2022-11-12T11:19:31.123Z,9.30
2022-11-12T11:22:11.193Z,9.30
2022-11-12T11:24:56.808Z,9.30
2022-11-12T11:27:29.808Z,9.30
2022-11-12T11:30:22.645Z,9.40
2022-11-12T11:32:58.163Z,9.40
2022-11-12T11:35:32.345Z,9.50
2022-11-12T11:38:35.805Z,9.60
2022-11-12T11:41:06.886Z,9.60
2022-11-12T11:43:57.014Z,9.70
2022-11-12T11:47:08.380Z,9.60
2022-11-12T11:49:47.123Z,9.60
2022-11-12T11:52:29.143Z,9.70
2022-11-12T11:55:08.352Z,9.60
2022-11-12T11:57:52.605Z,9.60
2022-11-12T12:00:21.138Z,9.50
2022-11-12T12:03:05.996Z,9.50
2022-11-12T12:05:53.153Z,9.50
2022-11-12T12:08:36.095Z,9.60
2022-11-12T12:11:35.301Z,9.50
2022-11-12T12:14:12.461Z,9.50
2022-11-12T12:17:11.727Z,9.50
2022-11-12T12:20:00.355Z,9.50
2022-11-12T12:22:41.917Z,9.50
2022-11-12T12:25:25.266Z,9.50
2022-11-12T12:28:04.174Z,9.40
2022-11-12T12:30:37.202Z,9.40
2022-11-12T12:33:39.072Z,9.40
2022-11-12T12:36:11.114Z,9.40
2022-11-12T12:39:07.671Z,9.40
2022-11-12T12:41:49.826Z,9.40
2022-11-12T12:44:16.518Z,9.40
2022-11-12T12:46:48.443Z,9.40
2022-11-12T12:49:25.746Z,9.30
2022-11-12T12:51:55.809Z,9.30
2022-11-12T12:54:40.816Z,9.30
2022-11-12T12:57:37.933Z,9.30
2022-11-12T13:00:39.738Z,9.20
2022-11-12T13:03:10.053Z,9.20
2022-11-12T13:05:40.121Z,9.20
2022-11-12T13:08:11.746Z,9.30
2022-11-12T13:10:50.671Z,9.20
2022-11-12T13:13:17.317Z,9.10
2022-11-12T13:15:56.957Z,9.10
2022-11-12T13:18:39.503Z,9.10
2022-11-12T13:21:23.969Z,9.20
2022-11-12T13:24:06.794Z,9.20
2022-11-12T13:26:57.440Z,9.20
2022-11-12T13:29:28.051Z,9.20
2022-11-12T13:32:36.313Z,9.20
2022-11-12T13:35:21.996Z,9.20
2022-11-12T13:37:56.415Z,9.20
2022-11-12T13:40:23.023Z,9.20
2022-11-12T13:42:50.295Z,9.20
2022-11-12T13:45:20.847Z,9.30
2022-11-12T13:47:50.757Z,9.30
2022-11-12T13:50:23.008Z,9.20
2022-11-12T13:52:53.266Z,9.30
2022-11-12T13:55:22.566Z,9.20
2022-11-12T13:57:51.343Z,9.20
2022-11-12T14:00:17.999Z,9.20
2022-11-12T14:02:50.067Z,9.20
2022-11-12T14:05:20.221Z,9.20
2022-11-12T14:07:55.202Z,9.10
2022-11-12T14:10:45.896Z,9.10
2022-11-12T14:13:44.647Z,9.10
2022-11-12T14:16:41.213Z,9.00
2022-11-12T14:19:35.916Z,9.00
2022-11-12T14:22:18.192Z,9.00
2022-11-12T14:24:48.192Z,9.00
2022-11-12T14:27:34.293Z,9.00
2022-11-12T14:30:20.989Z,9.00
2022-11-12T14:32:59.809Z,9.00
2022-11-12T14:35:36.067Z,9.00
2022-11-12T14:38:11.955Z,9.00
2022-11-12T14:40:59.001Z,9.00
2022-11-12T14:43:46.908Z,8.90
2022-11-12T14:46:36.451Z,8.90
2022-11-12T14:49:44.045Z,8.90
2022-11-12T14:52:41.889Z,8.90
2022-11-12T14:55:15.571Z,8.90
2022-11-12T14:57:43.364Z,8.80
2022-11-12T15:00:57.926Z,8.80
2022-11-12T15:03:31.423Z,8.80
2022-11-12T15:06:29.051Z,8.80
2022-11-12T15:08:59.499Z,8.70
2022-11-12T15:11:38.159Z,8.70
2022-11-12T15:14:04.858Z,8.70
2022-11-12T15:16:34.288Z,8.70
2022-11-12T15:19:16.369Z,8.70
2022-11-12T15:21:55.240Z,8.60
2022-11-12T15:24:43.696Z,8.60
2022-11-12T15:27:38.584Z,8.60
2022-11-12T15:30:29.936Z,8.60
2022-11-12T15:33:17.311Z,8.60
2022-11-12T15:35:46.945Z,8.60
2022-11-12T15:38:47.991Z,8.50
2022-11-12T15:41:27.091Z,8.50
2022-11-12T15:43:54.018Z,8.50
2022-11-12T15:46:23.272Z,8.50
2022-11-12T15:48:55.605Z,8.50
2022-11-12T15:51:22.747Z,8.40
2022-11-12T15:53:49.399Z,8.40
2022-11-12T15:56:22.148Z,8.40
2022-11-12T15:58:48.930Z,8.40
2022-11-12T16:01:15.616Z,8.30
2022-11-12T16:03:42.231Z,8.30
2022-11-12T16:06:11.614Z,8.30
2022-11-12T16:08:38.389Z,8.30
2022-11-12T16:11:25.099Z,8.30
2022-11-12T16:13:53.982Z,8.30
2022-11-12T16:16:20.604Z,8.30
2022-11-12T16:18:49.770Z,8.30
2022-11-12T16:21:20.625Z,8.30
2022-11-12T16:23:47.702Z,8.20
2022-11-12T16:26:19.966Z,8.20
2022-11-12T16:28:48.815Z,8.20
2022-11-12T16:31:15.564Z,8.20
2022-11-12T16:33:44.983Z,8.10
2022-11-12T16:36:15.717Z,8.10
2022-11-12T16:38:44.943Z,8.10
2022-11-12T16:41:13.204Z,8.10
2022-11-12T16:43:40.359Z,8.10
2022-11-12T16:46:14.746Z,8.10
2022-11-12T16:48:41.486Z,8.10
2022-11-12T16:51:16.052Z,8.10
2022-11-12T16:53:42.704Z,8.10
2022-11-12T16:56:18.799Z,8.10
2022-11-12T16:58:48.421Z,8.10
2022-11-12T17:01:29.840Z,8.10
2022-11-12T17:03:57.580Z,8.10
2022-11-12T17:06:36.747Z,8.10
2022-11-12T17:09:12.191Z,8.10
2022-11-12T17:11:38.913Z,8.10
2022-11-12T17:14:06.491Z,8.10
2022-11-12T17:16:33.499Z,8.10
2022-11-12T17:19:05.374Z,8.10
2022-11-12T17:21:31.995Z,8.10
2022-11-12T17:23:58.682Z,8.10
2022-11-12T17:26:27.583Z,8.10
2022-11-12T17:29:01.131Z,8.10
2022-11-12T17:31:30.476Z,8.10
2022-11-12T17:33:57.337Z,8.10
2022-11-12T17:36:27.169Z,8.10
2022-11-12T17:38:58.920Z,8.10
2022-11-12T17:41:30.765Z,8.00
2022-11-12T17:44:01.815Z,8.00
2022-11-12T17:46:29.563Z,8.00
2022-11-12T17:48:56.851Z,8.00
2022-11-12T17:51:26.242Z,8.00
2022-11-12T17:53:53.807Z,8.00
2022-11-12T17:56:22.610Z,8.00
2022-11-12T17:58:52.899Z,7.90
2022-11-12T18:01:24.848Z,8.00
2022-11-12T18:03:53.541Z,7.90
2022-11-12T18:06:21.605Z,7.90
2022-11-12T18:08:56.074Z,7.90
2022-11-12T18:11:24.728Z,7.90
2022-11-12T18:13:51.561Z,7.90
2022-11-12T18:16:31.200Z,7.90
2022-11-12T18:18:57.913Z,7.90
2022-11-12T18:21:26.289Z,7.80
2022-11-12T18:23:53.682Z,7.80
2022-11-12T18:26:22.892Z,7.80
2022-11-12T18:28:57.960Z,7.80
2022-11-12T18:31:26.952Z,7.80
2022-11-12T18:33:54.838Z,7.80
2022-11-12T18:36:26.387Z,7.80
2022-11-12T18:38:56.668Z,7.80
2022-11-12T18:41:26.573Z,7.70
2022-11-12T18:43:54.305Z,7.70
2022-11-12T18:46:21.027Z,7.60
2022-11-12T18:48:47.666Z,7.60
2022-11-12T18:51:16.559Z,7.70
2022-11-12T18:53:43.581Z,7.60
2022-11-12T18:56:15.627Z,7.60
2022-11-12T18:58:42.803Z,7.60
2022-11-12T19:01:12.765Z,7.70
2022-11-12T19:03:39.453Z,7.70
2022-11-12T19:06:07.121Z,7.70
2022-11-12T19:08:34.705Z,7.60
2022-11-12T19:11:12.036Z,7.60
2022-11-12T19:13:39.475Z,7.60
2022-11-12T19:16:16.869Z,7.60
2022-11-12T19:18:44.648Z,7.60
2022-11-12T19:21:14.357Z,7.60
2022-11-12T19:23:44.208Z,7.60
2022-11-12T19:26:16.672Z,7.60
2022-11-12T19:28:46.360Z,7.60
2022-11-12T19:31:23.104Z,7.60
2022-11-12T19:33:50.652Z,7.60
2022-11-12T19:36:20.619Z,7.60
2022-11-12T19:38:47.694Z,7.60
2022-11-12T19:41:19.654Z,7.50
2022-11-12T19:43:47.432Z,7.50
2022-11-12T19:46:14.766Z,7.50
2022-11-12T19:48:42.107Z,7.50
2022-11-12T19:51:10.250Z,7.50
2022-11-12T19:53:44.509Z,7.40
2022-11-12T19:56:13.796Z,7.50
2022-11-12T19:58:46.367Z,7.40
2022-11-12T20:01:15.954Z,7.50
2022-11-12T20:03:42.846Z,7.50
2022-11-12T20:06:17.724Z,7.40
2022-11-12T20:08:44.583Z,7.40
2022-11-12T20:11:11.847Z,7.40
2022-11-12T20:13:39.286Z,7.40
2022-11-12T20:16:11.988Z,7.40
2022-11-12T20:18:38.897Z,7.40
2022-11-12T20:21:06.362Z,7.40
2022-11-12T20:23:34.343Z,7.40
2022-11-12T20:26:09.964Z,7.40
2022-11-12T20:28:38.526Z,7.40
2022-11-12T20:31:16.910Z,7.40
2022-11-12T20:33:43.598Z,7.30
2022-11-12T20:36:15.332Z,7.30
2022-11-12T20:38:44.206Z,7.30
2022-11-12T20:41:24.273Z,7.30
2022-11-12T20:43:58.473Z,7.30
2022-11-12T20:46:26.409Z,7.30
2022-11-12T20:48:56.464Z,7.30
2022-11-12T20:51:25.957Z,7.30
2022-11-12T20:53:59.420Z,7.30
2022-11-12T20:56:28.959Z,7.30
2022-11-12T20:58:55.946Z,7.30
2022-11-12T21:01:24.784Z,7.20
2022-11-12T21:03:52.050Z,7.20
2022-11-12T21:06:22.601Z,7.30
2022-11-12T21:08:51.791Z,7.20
2022-11-12T21:11:20.685Z,7.20
2022-11-12T21:13:47.570Z,7.30
2022-11-12T21:16:16.791Z,7.30
2022-11-12T21:18:45.622Z,7.30
2022-11-12T21:21:14.425Z,7.30
2022-11-12T21:23:44.983Z,7.30
2022-11-12T21:26:14.288Z,7.30
2022-11-12T21:28:54.723Z,7.30
2022-11-12T21:31:24.183Z,7.30
2022-11-12T21:33:55.275Z,7.30
2022-11-12T21:36:22.727Z,7.30
2022-11-12T21:38:49.855Z,7.30
2022-11-12T21:41:22.037Z,7.30
2022-11-12T21:43:49.352Z,7.20
2022-11-12T21:46:22.482Z,7.20
2022-11-12T21:48:54.861Z,7.30
2022-11-12T21:51:24.684Z,7.30
2022-11-12T21:54:10.047Z,7.30
2022-11-12T21:56:37.836Z,7.20
2022-11-12T21:59:04.618Z,7.30
2022-11-12T22:01:34.121Z,7.20
2022-11-12T22:04:01.061Z,7.20
2022-11-12T22:06:30.037Z,7.20
2022-11-12T22:08:59.198Z,7.20
2022-11-12T22:11:26.328Z,7.20
2022-11-12T22:13:53.219Z,7.20
2022-11-12T22:16:22.162Z,7.20
2022-11-12T22:18:51.296Z,7.10
2022-11-12T22:21:23.695Z,7.10
2022-11-12T22:23:50.663Z,7.10
2022-11-12T22:26:24.392Z,7.10
2022-11-12T22:28:54.816Z,7.10
2022-11-12T22:31:24.320Z,7.10
2022-11-12T22:33:51.055Z,7.10
2022-11-12T22:36:22.898Z,7.10
2022-11-12T22:38:53.796Z,7.10
2022-11-12T22:41:35.298Z,7.10
2022-11-12T22:44:02.477Z,7.10
2022-11-12T22:46:33.799Z,7.00
2022-11-12T22:49:01.568Z,7.00
2022-11-12T22:51:31.767Z,7.00
2022-11-12T22:54:01.210Z,7.00
2022-11-12T22:56:28.478Z,6.90
2022-11-12T22:58:58.237Z,7.00
2022-11-12T23:01:30.773Z,7.00
2022-11-12T23:04:03.425Z,7.00
2022-11-12T23:06:30.733Z,7.00
2022-11-12T23:09:01.459Z,6.90
2022-11-12T23:11:31.634Z,6.90
2022-11-12T23:13:58.340Z,6.90
2022-11-12T23:16:29.903Z,6.90
2022-11-12T23:18:56.874Z,6.90
2022-11-12T23:21:26.690Z,6.90
2022-11-12T23:23:55.696Z,6.90
2022-11-12T23:26:24.741Z,6.90
2022-11-12T23:28:54.092Z,6.90
2022-11-12T23:31:26.576Z,6.90
2022-11-12T23:33:57.146Z,6.90
2022-11-12T23:36:25.719Z,6.80
2022-11-12T23:38:52.867Z,6.80
2022-11-12T23:41:25.876Z,6.70
2022-11-12T23:43:54.051Z,6.70
2022-11-12T23:46:21.181Z,6.80
2022-11-12T23:48:48.130Z,6.80
2022-11-12T23:51:20.695Z,6.80
2022-11-12T23:53:49.785Z,6.80
2022-11-12T23:56:18.564Z,6.80
2022-11-12T23:58:45.326Z,6.80
